Kalona, Iowa
Current Conditions -  °F | °C
As of 2:52 PM on Tuesday 21 Oct 2014 (Local Time) from KIOW Reporting Station
Clear Clear  
Wind Chill: 60°   Ceiling: Unl
Heat Index: 60°   Visibility: 10mi
Dew Point: 41°   Wind: 7mph
Humidity: 49%   Direction: 70°ENE
Pressure: 30.17"   Gusts: NA
Location:  41.48°N, 91.71°W
Report Text: KIOW 211952Z AUTO 07006KT 10SM CLR 16/05 A3017 RMK AO2 SLP218 T01560050
Loading
Personal Weather Stations






























Interactive Weather Map
Tropical Storm Tracking
New forecast layout! Learn more

10-Day Weather Forecast

Advertisements
Track Severe Weather on mobile